Main page
METAR-TAF:

METAR-TAF

Airports :

Chapecó Airport

Chapecó, Santa Catarina, Brazil

latitude: 27-08-02S, longitude: 052-39-43W, elevation: 654 m

Current weather observation

The report was made 2 hours and 21 minutes ago, at 08:00 UTC
Calm wind
Temperature 20°C
Humidity 100%
Pressure 1008 hPa
Visibility: 8000 m
Scattered clouds at a height of 500 ft
Broken clouds at a height of 2000 ft
Overcast at a height of 8000 ft
light rain

METAR: SBCH 140800Z 00000KT 8000 -RA SCT005 BKN020 OVC080 20/20 Q1008

Time: 08:21 (10:21 UTC)


TAF: missing

Weather observations and forecasts of more than 4000 airports (METAR and TAF reports).

The available stations are represented by yellow and red dots on the map.

Hover mouse over dot to see the name of the station.

Then click to see weather observations and forecasts.

To change the map : click on the green buttons with a black cross to zoom in, on the green button with a dash to zoom out, or on the green arrows for adjacent maps.


METAR-TAF: